Terminal Aerodrome Forecast
Issued by NWS

Home | Current Version | Previous Version | Text Only | Print | Product List | Glossary Off
Versions: 1 2 3 4 5 6 7 8 9 10 11 12 13

000
FTUS43 KGRB 012321
TAFAUW
TAF
KAUW 012321Z 0200/0224 07007KT P6SM SCT070 BKN090
     FM020300 06007KT P6SM FEW090
     FM021500 35005KT P6SM SCT050 SCT070=

USA.gov is the U.S. government's official web portal to all federal, state and local government web resources and services.